sensor_id;sensor_type;location;lat;lon;timestamp;pressure;altitude;pressure_sealevel;temperature;humidity
49122;BME280;35529;44.342;25.944;2023-07-31T00:01:23;99923.25;;;24.90;100.00
49122;BME280;35529;44.342;25.944;2023-07-31T00:03:52;99898.34;;;24.88;100.00
49122;BME280;35529;44.342;25.944;2023-07-31T00:06:23;99921.47;;;24.85;100.00
49122;BME280;35529;44.342;25.944;2023-07-31T00:08:49;99916.53;;;24.87;100.00
49122;BME280;35529;44.342;25.944;2023-07-31T00:11:17;99921.16;;;24.87;100.00
49122;BME280;35529;44.342;25.944;2023-07-31T00:13:43;99932.53;;;24.89;100.00
49122;BME280;35529;44.342;25.944;2023-07-31T00:16:09;99934.53;;;24.83;100.00
49122;BME280;35529;44.342;25.944;2023-07-31T00:18:36;99941.13;;;24.68;100.00
49122;BME280;35529;44.342;25.944;2023-07-31T00:21:02;99930.78;;;24.42;100.00
49122;BME280;35529;44.342;25.944;2023-07-31T00:23:28;99919.13;;;24.14;100.00
49122;BME280;35529;44.342;25.944;2023-07-31T00:25:54;99929.16;;;24.00;100.00
49122;BME280;35529;44.342;25.944;2023-07-31T00:28:20;99914.38;;;23.92;100.00
49122;BME280;35529;44.342;25.944;2023-07-31T00:30:46;99910.94;;;23.86;100.00
49122;BME280;35529;44.342;25.944;2023-07-31T00:33:14;99922.69;;;23.82;100.00
49122;BME280;35529;44.342;25.944;2023-07-31T00:35:41;99922.78;;;23.76;100.00
49122;BME280;35529;44.342;25.944;2023-07-31T00:38:13;99916.34;;;23.72;100.00
49122;BME280;35529;44.342;25.944;2023-07-31T00:40:39;99941.84;;;23.71;100.00
49122;BME280;35529;44.342;25.944;2023-07-31T00:43:05;99923.66;;;23.72;100.00
49122;BME280;35529;44.342;25.944;2023-07-31T00:45:31;99928.28;;;23.71;100.00
49122;BME280;35529;44.342;25.944;2023-07-31T00:48:00;99932.88;;;23.71;100.00
49122;BME280;35529;44.342;25.944;2023-07-31T00:50:27;99942.41;;;23.68;100.00
49122;BME280;35529;44.342;25.944;2023-07-31T00:52:54;99956.41;;;23.75;100.00
49122;BME280;35529;44.342;25.944;2023-07-31T00:55:23;99972.78;;;23.84;100.00
49122;BME280;35529;44.342;25.944;2023-07-31T00:57:49;99988.19;;;23.89;100.00
49122;BME280;35529;44.342;25.944;2023-07-31T01:00:16;99993.22;;;23.96;100.00
49122;BME280;35529;44.342;25.944;2023-07-31T01:02:44;99997.25;;;23.98;100.00
49122;BME280;35529;44.342;25.944;2023-07-31T01:05:10;99998.88;;;23.99;100.00
49122;BME280;35529;44.342;25.944;2023-07-31T01:07:52;100007.09;;;23.94;100.00
49122;BME280;35529;44.342;25.944;2023-07-31T01:10:29;100015.53;;;23.92;100.00
49122;BME280;35529;44.342;25.944;2023-07-31T01:12:59;100021.97;;;23.97;100.00
49122;BME280;35529;44.342;25.944;2023-07-31T01:15:28;100028.19;;;23.97;100.00
49122;BME280;35529;44.342;25.944;2023-07-31T01:17:59;100022.41;;;23.85;100.00
49122;BME280;35529;44.342;25.944;2023-07-31T01:20:29;100026.44;;;23.68;100.00
49122;BME280;35529;44.342;25.944;2023-07-31T01:25:54;100045.16;;;23.32;100.00
49122;BME280;35529;44.342;25.944;2023-07-31T01:28:23;100043.00;;;23.09;100.00
49122;BME280;35529;44.342;25.944;2023-07-31T01:30:58;100059.47;;;22.89;100.00
49122;BME280;35529;44.342;25.944;2023-07-31T01:33:28;100058.84;;;22.49;100.00
49122;BME280;35529;44.342;25.944;2023-07-31T01:35:58;100050.31;;;22.02;100.00
49122;BME280;35529;44.342;25.944;2023-07-31T01:38:27;100056.59;;;21.52;100.00
49122;BME280;35529;44.342;25.944;2023-07-31T01:40:58;100069.00;;;21.08;100.00
49122;BME280;35529;44.342;25.944;2023-07-31T01:43:26;100079.34;;;20.86;100.00
49122;BME280;35529;44.342;25.944;2023-07-31T01:45:55;100087.75;;;20.69;100.00
49122;BME280;35529;44.342;25.944;2023-07-31T01:48:26;100092.34;;;20.53;100.00
49122;BME280;35529;44.342;25.944;2023-07-31T01:50:54;100090.75;;;20.41;100.00
49122;BME280;35529;44.342;25.944;2023-07-31T01:53:25;100101.00;;;20.34;100.00
49122;BME280;35529;44.342;25.944;2023-07-31T01:55:52;100109.34;;;20.38;100.00
49122;BME280;35529;44.342;25.944;2023-07-31T01:58:20;100102.34;;;20.32;100.00
49122;BME280;35529;44.342;25.944;2023-07-31T02:00:46;100105.84;;;20.17;100.00
49122;BME280;35529;44.342;25.944;2023-07-31T02:03:12;100114.47;;;20.03;100.00
49122;BME280;35529;44.342;25.944;2023-07-31T02:10:40;100131.94;;;19.80;100.00
49122;BME280;35529;44.342;25.944;2023-07-31T02:13:06;100116.84;;;19.79;100.00
49122;BME280;35529;44.342;25.944;2023-07-31T02:15:32;100113.59;;;19.77;100.00
49122;BME280;35529;44.342;25.944;2023-07-31T02:17:59;100105.50;;;19.77;100.00
49122;BME280;35529;44.342;25.944;2023-07-31T02:20:25;100112.84;;;19.82;100.00
49122;BME280;35529;44.342;25.944;2023-07-31T02:22:51;100104.16;;;19.80;100.00
49122;BME280;35529;44.342;25.944;2023-07-31T02:25:17;100095.00;;;19.70;100.00
49122;BME280;35529;44.342;25.944;2023-07-31T02:27:43;100101.75;;;19.68;100.00
49122;BME280;35529;44.342;25.944;2023-07-31T02:30:09;100097.94;;;19.69;100.00
49122;BME280;35529;44.342;25.944;2023-07-31T02:32:35;100103.91;;;19.71;100.00
49122;BME280;35529;44.342;25.944;2023-07-31T02:35:02;100115.19;;;19.73;100.00
49122;BME280;35529;44.342;25.944;2023-07-31T02:37:28;100102.00;;;19.71;100.00
49122;BME280;35529;44.342;25.944;2023-07-31T02:39:54;100097.16;;;19.73;100.00
49122;BME280;35529;44.342;25.944;2023-07-31T02:42:21;100091.25;;;19.76;100.00
49122;BME280;35529;44.342;25.944;2023-07-31T02:44:47;100089.34;;;19.77;100.00
49122;BME280;35529;44.342;25.944;2023-07-31T02:47:13;100088.28;;;19.78;100.00
49122;BME280;35529;44.342;25.944;2023-07-31T02:49:39;100079.66;;;19.71;100.00
49122;BME280;35529;44.342;25.944;2023-07-31T02:52:05;100088.25;;;19.73;100.00
49122;BME280;35529;44.342;25.944;2023-07-31T02:54:31;100083.72;;;19.84;100.00
49122;BME280;35529;44.342;25.944;2023-07-31T02:56:57;100082.38;;;19.86;100.00
49122;BME280;35529;44.342;25.944;2023-07-31T02:59:23;100084.28;;;19.91;100.00
49122;BME280;35529;44.342;25.944;2023-07-31T03:01:51;100081.06;;;19.99;100.00
49122;BME280;35529;44.342;25.944;2023-07-31T03:04:17;100073.50;;;20.06;100.00
49122;BME280;35529;44.342;25.944;2023-07-31T03:06:43;100075.94;;;20.13;100.00
49122;BME280;35529;44.342;25.944;2023-07-31T03:09:09;100078.91;;;20.22;100.00
49122;BME280;35529;44.342;25.944;2023-07-31T03:11:35;100079.97;;;20.16;100.00
49122;BME280;35529;44.342;25.944;2023-07-31T03:14:01;100086.97;;;20.12;100.00
49122;BME280;35529;44.342;25.944;2023-07-31T03:16:27;100079.97;;;20.00;100.00
49122;BME280;35529;44.342;25.944;2023-07-31T03:18:53;100090.22;;;19.98;100.00
49122;BME280;35529;44.342;25.944;2023-07-31T03:21:20;100088.59;;;20.07;100.00
49122;BME280;35529;44.342;25.944;2023-07-31T03:23:46;100081.59;;;20.17;100.00
49122;BME280;35529;44.342;25.944;2023-07-31T03:26:12;100080.25;;;20.24;100.00
49122;BME280;35529;44.342;25.944;2023-07-31T03:31:27;100086.44;;;20.25;100.00
49122;BME280;35529;44.342;25.944;2023-07-31T03:33:53;100088.06;;;20.21;100.00
49122;BME280;35529;44.342;25.944;2023-07-31T03:36:19;100081.59;;;20.12;100.00
49122;BME280;35529;44.342;25.944;2023-07-31T03:38:46;100085.91;;;20.18;100.00
49122;BME280;35529;44.342;25.944;2023-07-31T03:41:12;100073.78;;;20.25;100.00
49122;BME280;35529;44.342;25.944;2023-07-31T03:43:38;100088.06;;;20.36;100.00
49122;BME280;35529;44.342;25.944;2023-07-31T03:46:05;100074.31;;;20.43;100.00
49122;BME280;35529;44.342;25.944;2023-07-31T03:48:31;100082.91;;;20.40;100.00
49122;BME280;35529;44.342;25.944;2023-07-31T03:50:57;100081.03;;;20.30;100.00
49122;BME280;35529;44.342;25.944;2023-07-31T03:53:23;100082.66;;;20.41;100.00
49122;BME280;35529;44.342;25.944;2023-07-31T03:55:50;100087.50;;;20.55;100.00
49122;BME280;35529;44.342;25.944;2023-07-31T03:58:16;100093.94;;;20.64;100.00
49122;BME280;35529;44.342;25.944;2023-07-31T04:00:42;100103.41;;;20.62;100.00
49122;BME280;35529;44.342;25.944;2023-07-31T04:03:09;100100.41;;;20.73;100.00
49122;BME280;35529;44.342;25.944;2023-07-31T04:05:37;100106.88;;;20.83;100.00
49122;BME280;35529;44.342;25.944;2023-07-31T04:08:03;100099.31;;;20.90;100.00
49122;BME280;35529;44.342;25.944;2023-07-31T04:10:29;100108.47;;;20.99;100.00
49122;BME280;35529;44.342;25.944;2023-07-31T04:12:59;100114.91;;;21.08;100.00
49122;BME280;35529;44.342;25.944;2023-07-31T04:15:26;100119.47;;;21.13;100.00
49122;BME280;35529;44.342;25.944;2023-07-31T04:17:52;100119.97;;;21.20;100.00
49122;BME280;35529;44.342;25.944;2023-07-31T04:20:19;100128.31;;;21.24;100.00
49122;BME280;35529;44.342;25.944;2023-07-31T04:22:45;100116.94;;;21.32;100.00
49122;BME280;35529;44.342;25.944;2023-07-31T04:25:11;100120.97;;;21.40;100.00
49122;BME280;35529;44.342;25.944;2023-07-31T04:27:37;100121.47;;;21.47;100.00
49122;BME280;35529;44.342;25.944;2023-07-31T04:30:04;100126.84;;;21.57;100.00
49122;BME280;35529;44.342;25.944;2023-07-31T04:32:30;100129.25;;;21.64;100.00
49122;BME280;35529;44.342;25.944;2023-07-31T04:34:56;100138.13;;;21.70;100.00
49122;BME280;35529;44.342;25.944;2023-07-31T04:37:23;100135.16;;;21.71;100.00
49122;BME280;35529;44.342;25.944;2023-07-31T04:39:49;100136.22;;;21.75;100.00
49122;BME280;35529;44.342;25.944;2023-07-31T04:42:15;100149.94;;;21.84;100.00
49122;BME280;35529;44.342;25.944;2023-07-31T04:44:41;100152.88;;;21.88;100.00
49122;BME280;35529;44.342;25.944;2023-07-31T04:47:08;100150.44;;;21.91;100.00
49122;BME280;35529;44.342;25.944;2023-07-31T04:49:34;100156.06;;;21.95;100.00
49122;BME280;35529;44.342;25.944;2023-07-31T04:52:00;100149.03;;;21.99;100.00
49122;BME280;35529;44.342;25.944;2023-07-31T04:54:26;100153.34;;;22.00;100.00
49122;BME280;35529;44.342;25.944;2023-07-31T04:56:53;100156.59;;;22.02;100.00
49122;BME280;35529;44.342;25.944;2023-07-31T04:59:19;100166.28;;;22.03;100.00
49122;BME280;35529;44.342;25.944;2023-07-31T05:01:45;100153.59;;;22.04;100.00
49122;BME280;35529;44.342;25.944;2023-07-31T05:04:12;100159.22;;;22.07;100.00
49122;BME280;35529;44.342;25.944;2023-07-31T05:06:38;100165.72;;;22.12;100.00
49122;BME280;35529;44.342;25.944;2023-07-31T05:09:05;100160.81;;;22.14;100.00
49122;BME280;35529;44.342;25.944;2023-07-31T05:11:31;100163.53;;;22.14;100.00
49122;BME280;35529;44.342;25.944;2023-07-31T05:13:57;100165.66;;;22.17;100.00
49122;BME280;35529;44.342;25.944;2023-07-31T05:16:23;100163.78;;;22.17;100.00
49122;BME280;35529;44.342;25.944;2023-07-31T05:18:49;100160.22;;;22.22;100.00
49122;BME280;35529;44.342;25.944;2023-07-31T05:21:16;100161.25;;;22.26;100.00
49122;BME280;35529;44.342;25.944;2023-07-31T05:23:42;100164.22;;;22.30;100.00
49122;BME280;35529;44.342;25.944;2023-07-31T05:26:08;100159.06;;;22.38;100.00
49122;BME280;35529;44.342;25.944;2023-07-31T05:28:37;100162.97;;;22.51;100.00
49122;BME280;35529;44.342;25.944;2023-07-31T05:31:04;100164.78;;;22.61;100.00
49122;BME280;35529;44.342;25.944;2023-07-31T05:33:30;100163.03;;;22.75;100.00
49122;BME280;35529;44.342;25.944;2023-07-31T05:35:57;100168.59;;;22.89;100.00
49122;BME280;35529;44.342;25.944;2023-07-31T05:38:23;100160.88;;;23.02;100.00
49122;BME280;35529;44.342;25.944;2023-07-31T05:40:49;100165.63;;;23.15;100.00
49122;BME280;35529;44.342;25.944;2023-07-31T05:43:15;100157.84;;;23.33;100.00
49122;BME280;35529;44.342;25.944;2023-07-31T05:45:42;100167.97;;;23.46;100.00
49122;BME280;35529;44.342;25.944;2023-07-31T05:48:08;100172.22;;;23.52;100.00
49122;BME280;35529;44.342;25.944;2023-07-31T05:50:34;100167.31;;;23.73;100.00
49122;BME280;35529;44.342;25.944;2023-07-31T05:53:00;100168.47;;;23.91;100.00
49122;BME280;35529;44.342;25.944;2023-07-31T05:55:26;100166.63;;;24.06;100.00
49122;BME280;35529;44.342;25.944;2023-07-31T05:57:53;100166.81;;;24.09;100.00
49122;BME280;35529;44.342;25.944;2023-07-31T06:00:19;100169.78;;;24.13;100.00
49122;BME280;35529;44.342;25.944;2023-07-31T06:02:47;100176.59;;;24.10;100.00
49122;BME280;35529;44.342;25.944;2023-07-31T06:05:13;100176.44;;;24.21;100.00
49122;BME280;35529;44.342;25.944;2023-07-31T06:07:39;100182.28;;;24.28;100.00
49122;BME280;35529;44.342;25.944;2023-07-31T06:10:05;100183.59;;;24.31;100.00
49122;BME280;35529;44.342;25.944;2023-07-31T06:12:32;100185.13;;;24.37;100.00
49122;BME280;35529;44.342;25.944;2023-07-31T06:14:58;100183.94;;;24.43;100.00
49122;BME280;35529;44.342;25.944;2023-07-31T06:17:24;100191.41;;;24.51;100.00
49122;BME280;35529;44.342;25.944;2023-07-31T06:19:52;100196.97;;;24.60;100.00
49122;BME280;35529;44.342;25.944;2023-07-31T06:22:18;100200.41;;;24.66;100.00
49122;BME280;35529;44.342;25.944;2023-07-31T06:24:44;100198.00;;;24.64;100.00
49122;BME280;35529;44.342;25.944;2023-07-31T06:27:12;100189.38;;;24.62;100.00
49122;BME280;35529;44.342;25.944;2023-07-31T06:29:39;100196.59;;;24.67;100.00
49122;BME280;35529;44.342;25.944;2023-07-31T06:32:05;100202.56;;;24.69;100.00
49122;BME280;35529;44.342;25.944;2023-07-31T06:34:32;100201.50;;;24.65;100.00
49122;BME280;35529;44.342;25.944;2023-07-31T06:36:58;100205.06;;;24.65;100.00
49122;BME280;35529;44.342;25.944;2023-07-31T06:39:24;100214.28;;;24.64;100.00
49122;BME280;35529;44.342;25.944;2023-07-31T06:41:50;100206.66;;;24.66;100.00
49122;BME280;35529;44.342;25.944;2023-07-31T06:44:16;100209.88;;;24.68;100.00
49122;BME280;35529;44.342;25.944;2023-07-31T06:46:43;100207.25;;;24.63;100.00
49122;BME280;35529;44.342;25.944;2023-07-31T06:49:09;100218.31;;;24.67;100.00
49122;BME280;35529;44.342;25.944;2023-07-31T06:51:35;100213.19;;;24.65;100.00
49122;BME280;35529;44.342;25.944;2023-07-31T06:54:04;100219.22;;;24.62;100.00
49122;BME280;35529;44.342;25.944;2023-07-31T06:56:30;100218.63;;;24.65;100.00
49122;BME280;35529;44.342;25.944;2023-07-31T06:58:56;100223.97;;;24.70;100.00
49122;BME280;35529;44.342;25.944;2023-07-31T07:01:22;100223.06;;;24.75;100.00
49122;BME280;35529;44.342;25.944;2023-07-31T07:03:49;100217.16;;;24.87;100.00
49122;BME280;35529;44.342;25.944;2023-07-31T07:06:16;100218.78;;;25.02;100.00
49122;BME280;35529;44.342;25.944;2023-07-31T07:08:43;100213.97;;;25.13;100.00
49122;BME280;35529;44.342;25.944;2023-07-31T07:11:09;100209.03;;;25.29;100.00
49122;BME280;35529;44.342;25.944;2023-07-31T07:16:06;100208.66;;;25.63;100.00
49122;BME280;35529;44.342;25.944;2023-07-31T07:18:33;100205.72;;;25.73;100.00
49122;BME280;35529;44.342;25.944;2023-07-31T07:20:59;100205.56;;;25.92;100.00
49122;BME280;35529;44.342;25.944;2023-07-31T07:23:27;100207.94;;;26.08;100.00
49122;BME280;35529;44.342;25.944;2023-07-31T07:25:53;100207.59;;;26.23;100.00
49122;BME280;35529;44.342;25.944;2023-07-31T07:28:20;100201.09;;;26.33;100.00
49122;BME280;35529;44.342;25.944;2023-07-31T07:30:51;100204.25;;;26.49;100.00
49122;BME280;35529;44.342;25.944;2023-07-31T07:33:17;100204.38;;;26.67;100.00
49122;BME280;35529;44.342;25.944;2023-07-31T07:35:45;100203.03;;;26.78;100.00
49122;BME280;35529;44.342;25.944;2023-07-31T07:38:11;100209.19;;;26.92;100.00
49122;BME280;35529;44.342;25.944;2023-07-31T07:40:40;100196.38;;;26.93;100.00
49122;BME280;35529;44.342;25.944;2023-07-31T07:43:07;100205.50;;;26.97;100.00
49122;BME280;35529;44.342;25.944;2023-07-31T07:45:33;100195.91;;;27.00;100.00
49122;BME280;35529;44.342;25.944;2023-07-31T07:47:59;100195.84;;;26.91;100.00
49122;BME280;35529;44.342;25.944;2023-07-31T07:50:26;100194.41;;;26.85;100.00
49122;BME280;35529;44.342;25.944;2023-07-31T07:52:52;100194.03;;;26.77;100.00
49122;BME280;35529;44.342;25.944;2023-07-31T07:55:18;100200.84;;;26.89;100.00
49122;BME280;35529;44.342;25.944;2023-07-31T07:57:44;100196.84;;;26.95;100.00
49122;BME280;35529;44.342;25.944;2023-07-31T08:00:31;100195.72;;;26.96;100.00
49122;BME280;35529;44.342;25.944;2023-07-31T08:03:23;100191.91;;;26.97;100.00
49122;BME280;35529;44.342;25.944;2023-07-31T08:06:19;100198.25;;;26.84;100.00
49122;BME280;35529;44.342;25.944;2023-07-31T08:08:58;100194.34;;;26.76;100.00
49122;BME280;35529;44.342;25.944;2023-07-31T08:11:34;100204.03;;;26.68;100.00
49122;BME280;35529;44.342;25.944;2023-07-31T08:14:04;100202.59;;;26.62;100.00
49122;BME280;35529;44.342;25.944;2023-07-31T08:16:35;100209.38;;;26.51;100.00
49122;BME280;35529;44.342;25.944;2023-07-31T08:19:13;100204.44;;;26.53;100.00
49122;BME280;35529;44.342;25.944;2023-07-31T08:21:49;100210.03;;;26.48;100.00
49122;BME280;35529;44.342;25.944;2023-07-31T08:24:38;100209.94;;;26.62;100.00
49122;BME280;35529;44.342;25.944;2023-07-31T08:30:32;100214.59;;;26.84;100.00
49122;BME280;35529;44.342;25.944;2023-07-31T08:33:27;100213.25;;;27.04;100.00
49122;BME280;35529;44.342;25.944;2023-07-31T08:45:43;100221.09;;;27.46;100.00
49122;BME280;35529;44.342;25.944;2023-07-31T08:54:53;100230.75;;;27.52;100.00
49122;BME280;35529;44.342;25.944;2023-07-31T09:03:24;100234.66;;;27.77;100.00
49122;BME280;35529;44.342;25.944;2023-07-31T09:08:53;100233.41;;;28.18;100.00
49122;BME280;35529;44.342;25.944;2023-07-31T09:11:40;100219.94;;;28.31;100.00
49122;BME280;35529;44.342;25.944;2023-07-31T09:14:08;100226.97;;;28.67;100.00
49122;BME280;35529;44.342;25.944;2023-07-31T09:16:34;100226.19;;;29.14;100.00
49122;BME280;35529;44.342;25.944;2023-07-31T09:19:03;100221.88;;;29.42;100.00
49122;BME280;35529;44.342;25.944;2023-07-31T09:21:31;100222.69;;;29.64;100.00
49122;BME280;35529;44.342;25.944;2023-07-31T09:23:57;100220.25;;;29.71;100.00
49122;BME280;35529;44.342;25.944;2023-07-31T09:26:31;100220.91;;;29.68;100.00
49122;BME280;35529;44.342;25.944;2023-07-31T09:28:58;100219.03;;;29.60;100.00
49122;BME280;35529;44.342;25.944;2023-07-31T09:31:40;100215.03;;;29.57;100.00
49122;BME280;35529;44.342;25.944;2023-07-31T09:34:07;100220.97;;;29.59;100.00
49122;BME280;35529;44.342;25.944;2023-07-31T09:36:39;100208.50;;;29.71;100.00
49122;BME280;35529;44.342;25.944;2023-07-31T09:39:05;100216.59;;;29.88;100.00
49122;BME280;35529;44.342;25.944;2023-07-31T09:41:37;100211.97;;;29.80;100.00
49122;BME280;35529;44.342;25.944;2023-07-31T09:44:04;100219.78;;;29.69;100.00
49122;BME280;35529;44.342;25.944;2023-07-31T09:46:30;100218.91;;;29.56;100.00
49122;BME280;35529;44.342;25.944;2023-07-31T09:49:03;100227.06;;;29.35;100.00
49122;BME280;35529;44.342;25.944;2023-07-31T09:51:30;100227.81;;;29.45;100.00
49122;BME280;35529;44.342;25.944;2023-07-31T09:53:57;100234.16;;;29.57;100.00
49122;BME280;35529;44.342;25.944;2023-07-31T09:56:23;100229.00;;;29.65;100.00
49122;BME280;35529;44.342;25.944;2023-07-31T09:58:49;100229.13;;;29.68;100.00
49122;BME280;35529;44.342;25.944;2023-07-31T10:01:16;100219.69;;;29.57;100.00
49122;BME280;35529;44.342;25.944;2023-07-31T10:03:42;100237.09;;;29.52;100.00
49122;BME280;35529;44.342;25.944;2023-07-31T10:06:10;100228.25;;;29.55;100.00
49122;BME280;35529;44.342;25.944;2023-07-31T10:08:37;100214.97;;;29.66;100.00
49122;BME280;35529;44.342;25.944;2023-07-31T10:11:04;100210.50;;;29.62;100.00
49122;BME280;35529;44.342;25.944;2023-07-31T10:13:30;100210.75;;;29.99;100.00
49122;BME280;35529;44.342;25.944;2023-07-31T10:15:58;100207.94;;;30.41;100.00
49122;BME280;35529;44.342;25.944;2023-07-31T10:18:25;100201.66;;;30.86;100.00
49122;BME280;35529;44.342;25.944;2023-07-31T10:20:52;100202.97;;;31.01;100.00
49122;BME280;35529;44.342;25.944;2023-07-31T10:23:18;100193.28;;;31.16;100.00
49122;BME280;35529;44.342;25.944;2023-07-31T10:25:44;100194.13;;;30.96;100.00
49122;BME280;35529;44.342;25.944;2023-07-31T10:28:11;100194.03;;;30.92;100.00
49122;BME280;35529;44.342;25.944;2023-07-31T10:30:38;100181.34;;;31.00;100.00
49122;BME280;35529;44.342;25.944;2023-07-31T10:33:05;100199.78;;;31.12;100.00
49122;BME280;35529;44.342;25.944;2023-07-31T10:35:32;100205.22;;;30.99;100.00
49122;BME280;35529;44.342;25.944;2023-07-31T10:38:19;100199.41;;;31.13;100.00
49122;BME280;35529;44.342;25.944;2023-07-31T10:40:44;100199.31;;;31.09;100.00
49122;BME280;35529;44.342;25.944;2023-07-31T10:43:23;100191.75;;;30.94;100.00
49122;BME280;35529;44.342;25.944;2023-07-31T10:45:49;100195.88;;;31.00;100.00
49122;BME280;35529;44.342;25.944;2023-07-31T10:48:16;100194.28;;;31.12;100.00
49122;BME280;35529;44.342;25.944;2023-07-31T10:50:49;100203.56;;;31.07;100.00
49122;BME280;35529;44.342;25.944;2023-07-31T10:53:25;100202.91;;;30.89;100.00
49122;BME280;35529;44.342;25.944;2023-07-31T10:55:51;100195.13;;;30.66;100.00
49122;BME280;35529;44.342;25.944;2023-07-31T10:58:18;100198.13;;;30.73;100.00
49122;BME280;35529;44.342;25.944;2023-07-31T11:00:44;100198.81;;;30.95;100.00
49122;BME280;35529;44.342;25.944;2023-07-31T11:03:15;100189.50;;;31.21;100.00
49122;BME280;35529;44.342;25.944;2023-07-31T11:08:20;100175.97;;;31.65;100.00
49122;BME280;35529;44.342;25.944;2023-07-31T11:10:49;100175.84;;;32.02;100.00
49122;BME280;35529;44.342;25.944;2023-07-31T11:13:15;100182.91;;;32.16;100.00
49122;BME280;35529;44.342;25.944;2023-07-31T11:15:41;100186.03;;;32.02;100.00
49122;BME280;35529;44.342;25.944;2023-07-31T11:18:08;100185.56;;;31.71;100.00
49122;BME280;35529;44.342;25.944;2023-07-31T11:20:36;100186.19;;;31.15;100.00
49122;BME280;35529;44.342;25.944;2023-07-31T11:23:03;100186.13;;;30.78;100.00
49122;BME280;35529;44.342;25.944;2023-07-31T11:25:30;100183.75;;;30.43;100.00
49122;BME280;35529;44.342;25.944;2023-07-31T11:28:06;100182.78;;;30.26;100.00
49122;BME280;35529;44.342;25.944;2023-07-31T11:30:33;100183.31;;;30.41;100.00
49122;BME280;35529;44.342;25.944;2023-07-31T11:33:00;100177.06;;;30.53;100.00
49122;BME280;35529;44.342;25.944;2023-07-31T11:35:32;100163.50;;;30.56;100.00
49122;BME280;35529;44.342;25.944;2023-07-31T11:37:58;100172.31;;;30.74;100.00
49122;BME280;35529;44.342;25.944;2023-07-31T11:40:24;100171.00;;;31.05;100.00
49122;BME280;35529;44.342;25.944;2023-07-31T11:42:57;100169.09;;;31.47;100.00
49122;BME280;35529;44.342;25.944;2023-07-31T11:45:27;100157.94;;;31.92;100.00
49122;BME280;35529;44.342;25.944;2023-07-31T11:47:56;100163.72;;;32.32;100.00
49122;BME280;35529;44.342;25.944;2023-07-31T11:50:23;100160.16;;;32.75;100.00
49122;BME280;35529;44.342;25.944;2023-07-31T11:52:57;100158.16;;;32.92;100.00
49122;BME280;35529;44.342;25.944;2023-07-31T11:55:25;100153.47;;;32.92;100.00
49122;BME280;35529;44.342;25.944;2023-07-31T11:57:51;100151.44;;;32.73;100.00
49122;BME280;35529;44.342;25.944;2023-07-31T12:00:22;100168.22;;;32.24;100.00
49122;BME280;35529;44.342;25.944;2023-07-31T12:02:48;100164.97;;;31.78;100.00
49122;BME280;35529;44.342;25.944;2023-07-31T12:05:15;100155.81;;;31.73;100.00
49122;BME280;35529;44.342;25.944;2023-07-31T12:07:51;100151.84;;;31.99;100.00
49122;BME280;35529;44.342;25.944;2023-07-31T12:10:27;100142.59;;;32.20;100.00
49122;BME280;35529;44.342;25.944;2023-07-31T12:16:00;100157.38;;;32.91;100.00
49122;BME280;35529;44.342;25.944;2023-07-31T12:18:21;100151.78;;;33.04;100.00
49122;BME280;35529;44.342;25.944;2023-07-31T12:20:48;100155.16;;;32.97;100.00
49122;BME280;35529;44.342;25.944;2023-07-31T12:23:36;100149.13;;;33.07;100.00
49122;BME280;35529;44.342;25.944;2023-07-31T12:26:05;100158.13;;;33.24;100.00
49122;BME280;35529;44.342;25.944;2023-07-31T12:28:45;100158.72;;;33.49;100.00
49122;BME280;35529;44.342;25.944;2023-07-31T12:31:12;100157.09;;;33.48;100.00
49122;BME280;35529;44.342;25.944;2023-07-31T12:33:39;100148.63;;;33.21;100.00
49122;BME280;35529;44.342;25.944;2023-07-31T12:36:12;100142.16;;;33.14;100.00
49122;BME280;35529;44.342;25.944;2023-07-31T12:38:39;100143.03;;;33.18;100.00
49122;BME280;35529;44.342;25.944;2023-07-31T12:41:05;100139.94;;;33.55;100.00
49122;BME280;35529;44.342;25.944;2023-07-31T12:43:37;100135.69;;;33.97;100.00
49122;BME280;35529;44.342;25.944;2023-07-31T12:46:03;100124.69;;;34.20;100.00
49122;BME280;35529;44.342;25.944;2023-07-31T12:48:31;100124.44;;;34.48;100.00
49122;BME280;35529;44.342;25.944;2023-07-31T12:50:57;100121.22;;;34.69;100.00
49122;BME280;35529;44.342;25.944;2023-07-31T12:53:23;100115.38;;;34.98;100.00
49122;BME280;35529;44.342;25.944;2023-07-31T12:55:49;100123.13;;;35.15;100.00
49122;BME280;35529;44.342;25.944;2023-07-31T12:58:16;100111.25;;;35.41;100.00
49122;BME280;35529;44.342;25.944;2023-07-31T13:00:42;100110.69;;;35.29;100.00
49122;BME280;35529;44.342;25.944;2023-07-31T13:03:08;100125.53;;;35.20;100.00
49122;BME280;35529;44.342;25.944;2023-07-31T13:05:34;100104.84;;;35.07;100.00
49122;BME280;35529;44.342;25.944;2023-07-31T13:08:00;100109.03;;;35.24;100.00
49122;BME280;35529;44.342;25.944;2023-07-31T13:10:27;100099.59;;;35.25;100.00
49122;BME280;35529;44.342;25.944;2023-07-31T13:12:55;100104.31;;;35.55;100.00
49122;BME280;35529;44.342;25.944;2023-07-31T13:15:22;100103.22;;;35.97;100.00
49122;BME280;35529;44.342;25.944;2023-07-31T13:17:48;100097.38;;;36.02;100.00
49122;BME280;35529;44.342;25.944;2023-07-31T13:20:14;100102.31;;;35.52;100.00
49122;BME280;35529;44.342;25.944;2023-07-31T13:22:40;100100.38;;;34.95;100.00